sensor_id;sensor_type;location;lat;lon;timestamp;P1;durP1;ratioP1;P2;durP2;ratioP2
60582;SDS011;46415;47.536;19.066;2022-09-29T00:02:10;2.87;;;2.58;;
60582;SDS011;46415;47.536;19.066;2022-09-29T00:05:13;4.37;;;3.33;;
60582;SDS011;46415;47.536;19.066;2022-09-29T00:08:15;2.80;;;2.50;;
60582;SDS011;46415;47.536;19.066;2022-09-29T00:11:19;3.42;;;3.12;;
60582;SDS011;46415;47.536;19.066;2022-09-29T00:14:22;3.45;;;3.12;;
60582;SDS011;46415;47.536;19.066;2022-09-29T00:17:25;3.17;;;2.87;;
60582;SDS011;46415;47.536;19.066;2022-09-29T00:20:28;3.17;;;2.87;;
60582;SDS011;46415;47.536;19.066;2022-09-29T00:23:31;4.65;;;3.33;;
60582;SDS011;46415;47.536;19.066;2022-09-29T00:26:35;2.65;;;2.45;;
60582;SDS011;46415;47.536;19.066;2022-09-29T00:29:38;3.95;;;3.37;;
60582;SDS011;46415;47.536;19.066;2022-09-29T00:32:40;3.92;;;3.47;;
60582;SDS011;46415;47.536;19.066;2022-09-29T00:35:43;2.47;;;2.25;;
60582;SDS011;46415;47.536;19.066;2022-09-29T00:38:46;4.10;;;3.67;;
60582;SDS011;46415;47.536;19.066;2022-09-29T00:41:50;3.20;;;2.80;;
60582;SDS011;46415;47.536;19.066;2022-09-29T00:44:54;5.40;;;3.17;;
60582;SDS011;46415;47.536;19.066;2022-09-29T00:48:06;4.93;;;3.65;;
60582;SDS011;46415;47.536;19.066;2022-09-29T00:51:15;3.92;;;2.97;;
60582;SDS011;46415;47.536;19.066;2022-09-29T00:54:20;3.17;;;2.87;;
60582;SDS011;46415;47.536;19.066;2022-09-29T00:57:25;3.00;;;2.80;;
60582;SDS011;46415;47.536;19.066;2022-09-29T01:00:31;4.35;;;2.62;;
60582;SDS011;46415;47.536;19.066;2022-09-29T01:03:40;4.32;;;3.83;;
60582;SDS011;46415;47.536;19.066;2022-09-29T01:06:49;3.08;;;2.58;;
60582;SDS011;46415;47.536;19.066;2022-09-29T01:09:56;3.85;;;3.17;;
60582;SDS011;46415;47.536;19.066;2022-09-29T01:12:59;3.83;;;3.37;;
60582;SDS011;46415;47.536;19.066;2022-09-29T01:16:03;3.35;;;2.97;;
60582;SDS011;46415;47.536;19.066;2022-09-29T01:19:50;4.32;;;3.92;;
60582;SDS011;46415;47.536;19.066;2022-09-29T01:33:09;4.37;;;3.97;;
60582;SDS011;46415;47.536;19.066;2022-09-29T01:40:02;2.97;;;2.70;;
60582;SDS011;46415;47.536;19.066;2022-09-29T01:43:17;3.70;;;2.95;;
60582;SDS011;46415;47.536;19.066;2022-09-29T01:46:46;4.07;;;3.55;;
60582;SDS011;46415;47.536;19.066;2022-09-29T01:53:06;3.53;;;3.20;;
60582;SDS011;46415;47.536;19.066;2022-09-29T01:56:14;4.15;;;3.40;;
60582;SDS011;46415;47.536;19.066;2022-09-29T01:59:37;4.12;;;3.58;;
60582;SDS011;46415;47.536;19.066;2022-09-29T02:02:45;3.87;;;3.30;;
60582;SDS011;46415;47.536;19.066;2022-09-29T02:05:57;4.35;;;3.97;;
60582;SDS011;46415;47.536;19.066;2022-09-29T02:09:03;6.78;;;4.45;;
60582;SDS011;46415;47.536;19.066;2022-09-29T02:12:13;3.65;;;3.28;;
60582;SDS011;46415;47.536;19.066;2022-09-29T02:15:25;5.25;;;3.37;;
60582;SDS011;46415;47.536;19.066;2022-09-29T02:18:35;4.35;;;3.33;;
60582;SDS011;46415;47.536;19.066;2022-09-29T02:21:43;4.57;;;3.55;;
60582;SDS011;46415;47.536;19.066;2022-09-29T02:24:46;3.58;;;3.20;;
60582;SDS011;46415;47.536;19.066;2022-09-29T02:27:53;5.30;;;4.82;;
60582;SDS011;46415;47.536;19.066;2022-09-29T02:30:56;5.28;;;3.47;;
60582;SDS011;46415;47.536;19.066;2022-09-29T02:33:59;4.85;;;3.22;;
60582;SDS011;46415;47.536;19.066;2022-09-29T02:37:19;3.97;;;3.60;;
60582;SDS011;46415;47.536;19.066;2022-09-29T02:40:31;4.50;;;3.87;;
60582;SDS011;46415;47.536;19.066;2022-09-29T02:57:16;7.07;;;4.30;;
60582;SDS011;46415;47.536;19.066;2022-09-29T03:00:34;5.35;;;4.32;;
60582;SDS011;46415;47.536;19.066;2022-09-29T03:03:37;6.50;;;3.62;;
60582;SDS011;46415;47.536;19.066;2022-09-29T03:06:40;4.80;;;3.97;;
60582;SDS011;46415;47.536;19.066;2022-09-29T03:09:43;3.95;;;3.62;;
60582;SDS011;46415;47.536;19.066;2022-09-29T03:12:46;6.30;;;4.53;;
60582;SDS011;46415;47.536;19.066;2022-09-29T03:15:48;5.07;;;4.22;;
60582;SDS011;46415;47.536;19.066;2022-09-29T03:18:51;4.05;;;3.65;;
60582;SDS011;46415;47.536;19.066;2022-09-29T03:21:54;6.75;;;5.47;;
60582;SDS011;46415;47.536;19.066;2022-09-29T03:24:57;6.47;;;5.18;;
60582;SDS011;46415;47.536;19.066;2022-09-29T03:27:59;6.30;;;4.30;;
60582;SDS011;46415;47.536;19.066;2022-09-29T03:31:05;6.80;;;4.70;;
60582;SDS011;46415;47.536;19.066;2022-09-29T03:34:10;6.32;;;4.62;;
60582;SDS011;46415;47.536;19.066;2022-09-29T03:37:13;5.75;;;4.70;;
60582;SDS011;46415;47.536;19.066;2022-09-29T03:40:16;4.20;;;3.78;;
60582;SDS011;46415;47.536;19.066;2022-09-29T03:43:19;9.13;;;6.32;;
60582;SDS011;46415;47.536;19.066;2022-09-29T03:46:22;4.70;;;3.85;;
60582;SDS011;46415;47.536;19.066;2022-09-29T03:49:24;5.57;;;4.37;;
60582;SDS011;46415;47.536;19.066;2022-09-29T03:52:27;6.30;;;4.70;;
60582;SDS011;46415;47.536;19.066;2022-09-29T03:55:30;5.32;;;4.15;;
60582;SDS011;46415;47.536;19.066;2022-09-29T03:58:33;7.03;;;5.90;;
60582;SDS011;46415;47.536;19.066;2022-09-29T04:01:36;5.22;;;3.97;;
60582;SDS011;46415;47.536;19.066;2022-09-29T04:04:40;8.70;;;5.60;;
60582;SDS011;46415;47.536;19.066;2022-09-29T04:07:42;7.60;;;4.65;;
60582;SDS011;46415;47.536;19.066;2022-09-29T04:10:45;5.32;;;4.53;;
60582;SDS011;46415;47.536;19.066;2022-09-29T04:13:48;9.32;;;6.32;;
60582;SDS011;46415;47.536;19.066;2022-09-29T04:16:52;6.72;;;4.72;;
60582;SDS011;46415;47.536;19.066;2022-09-29T04:19:54;9.98;;;4.55;;
60582;SDS011;46415;47.536;19.066;2022-09-29T04:22:58;7.57;;;5.35;;
60582;SDS011;46415;47.536;19.066;2022-09-29T04:26:02;5.07;;;4.07;;
60582;SDS011;46415;47.536;19.066;2022-09-29T04:29:05;5.20;;;3.80;;
60582;SDS011;46415;47.536;19.066;2022-09-29T04:32:08;7.50;;;5.78;;
60582;SDS011;46415;47.536;19.066;2022-09-29T04:35:11;5.50;;;4.45;;
60582;SDS011;46415;47.536;19.066;2022-09-29T04:38:14;6.50;;;4.93;;
60582;SDS011;46415;47.536;19.066;2022-09-29T04:41:17;9.00;;;5.10;;
60582;SDS011;46415;47.536;19.066;2022-09-29T04:44:19;7.43;;;5.65;;
60582;SDS011;46415;47.536;19.066;2022-09-29T04:47:23;5.65;;;4.78;;
60582;SDS011;46415;47.536;19.066;2022-09-29T04:50:26;8.68;;;5.25;;
60582;SDS011;46415;47.536;19.066;2022-09-29T04:53:29;5.70;;;5.10;;
60582;SDS011;46415;47.536;19.066;2022-09-29T04:56:31;6.65;;;4.57;;
60582;SDS011;46415;47.536;19.066;2022-09-29T04:59:34;7.90;;;5.70;;
60582;SDS011;46415;47.536;19.066;2022-09-29T05:02:37;6.78;;;5.68;;
60582;SDS011;46415;47.536;19.066;2022-09-29T05:05:40;9.50;;;7.05;;
60582;SDS011;46415;47.536;19.066;2022-09-29T05:08:42;6.90;;;5.15;;
60582;SDS011;46415;47.536;19.066;2022-09-29T05:11:45;5.18;;;4.68;;
60582;SDS011;46415;47.536;19.066;2022-09-29T05:14:48;9.50;;;7.82;;
60582;SDS011;46415;47.536;19.066;2022-09-29T05:17:50;6.12;;;4.78;;
60582;SDS011;46415;47.536;19.066;2022-09-29T05:20:53;6.12;;;4.85;;
60582;SDS011;46415;47.536;19.066;2022-09-29T05:24:16;7.32;;;6.03;;
60582;SDS011;46415;47.536;19.066;2022-09-29T05:27:19;7.18;;;5.78;;
60582;SDS011;46415;47.536;19.066;2022-09-29T05:30:24;6.47;;;4.90;;
60582;SDS011;46415;47.536;19.066;2022-09-29T05:33:27;6.15;;;5.07;;
60582;SDS011;46415;47.536;19.066;2022-09-29T05:36:29;6.53;;;5.72;;
60582;SDS011;46415;47.536;19.066;2022-09-29T05:39:32;8.13;;;6.10;;
60582;SDS011;46415;47.536;19.066;2022-09-29T05:42:36;6.25;;;4.97;;
60582;SDS011;46415;47.536;19.066;2022-09-29T05:45:38;10.00;;;7.45;;
60582;SDS011;46415;47.536;19.066;2022-09-29T05:48:41;7.32;;;5.53;;
60582;SDS011;46415;47.536;19.066;2022-09-29T05:51:47;8.00;;;5.72;;
60582;SDS011;46415;47.536;19.066;2022-09-29T05:54:50;12.75;;;6.18;;
60582;SDS011;46415;47.536;19.066;2022-09-29T05:57:53;7.65;;;5.30;;
60582;SDS011;46415;47.536;19.066;2022-09-29T06:00:57;8.98;;;6.82;;
60582;SDS011;46415;47.536;19.066;2022-09-29T06:04:00;6.32;;;4.60;;
60582;SDS011;46415;47.536;19.066;2022-09-29T06:07:02;5.50;;;4.85;;
60582;SDS011;46415;47.536;19.066;2022-09-29T06:10:06;6.65;;;5.03;;
60582;SDS011;46415;47.536;19.066;2022-09-29T06:13:08;7.93;;;5.62;;
60582;SDS011;46415;47.536;19.066;2022-09-29T06:16:11;7.47;;;5.45;;
60582;SDS011;46415;47.536;19.066;2022-09-29T06:19:15;9.52;;;7.87;;
60582;SDS011;46415;47.536;19.066;2022-09-29T06:22:18;6.47;;;5.78;;
60582;SDS011;46415;47.536;19.066;2022-09-29T06:25:21;8.38;;;7.50;;
60582;SDS011;46415;47.536;19.066;2022-09-29T06:28:25;12.07;;;7.70;;
60582;SDS011;46415;47.536;19.066;2022-09-29T06:31:28;7.55;;;5.35;;
60582;SDS011;46415;47.536;19.066;2022-09-29T06:34:32;7.72;;;6.07;;
60582;SDS011;46415;47.536;19.066;2022-09-29T06:37:34;6.80;;;4.70;;
60582;SDS011;46415;47.536;19.066;2022-09-29T06:40:37;4.05;;;3.55;;
60582;SDS011;46415;47.536;19.066;2022-09-29T06:43:40;2.28;;;2.08;;
60582;SDS011;46415;47.536;19.066;2022-09-29T06:46:42;2.58;;;1.87;;
60582;SDS011;46415;47.536;19.066;2022-09-29T06:49:45;2.15;;;1.95;;
60582;SDS011;46415;47.536;19.066;2022-09-29T06:53:02;2.03;;;1.93;;
60582;SDS011;46415;47.536;19.066;2022-09-29T06:56:06;3.47;;;1.80;;
60582;SDS011;46415;47.536;19.066;2022-09-29T06:59:10;2.25;;;2.00;;
60582;SDS011;46415;47.536;19.066;2022-09-29T07:02:13;1.10;;;1.05;;
60582;SDS011;46415;47.536;19.066;2022-09-29T07:05:16;1.80;;;1.27;;
60582;SDS011;46415;47.536;19.066;2022-09-29T07:08:18;0.82;;;0.82;;
60582;SDS011;46415;47.536;19.066;2022-09-29T07:11:21;0.98;;;0.90;;
60582;SDS011;46415;47.536;19.066;2022-09-29T07:14:24;3.10;;;1.05;;
60582;SDS011;46415;47.536;19.066;2022-09-29T07:17:27;1.00;;;1.00;;
60582;SDS011;46415;47.536;19.066;2022-09-29T07:20:30;1.02;;;1.00;;
60582;SDS011;46415;47.536;19.066;2022-09-29T07:23:33;1.42;;;0.77;;
60582;SDS011;46415;47.536;19.066;2022-09-29T07:26:35;0.77;;;0.77;;
60582;SDS011;46415;47.536;19.066;2022-09-29T07:29:39;0.85;;;0.85;;
60582;SDS011;46415;47.536;19.066;2022-09-29T07:32:42;1.45;;;0.75;;
60582;SDS011;46415;47.536;19.066;2022-09-29T07:35:59;0.73;;;0.73;;
60582;SDS011;46415;47.536;19.066;2022-09-29T07:39:01;1.05;;;1.05;;
60582;SDS011;46415;47.536;19.066;2022-09-29T07:42:04;0.98;;;0.98;;
60582;SDS011;46415;47.536;19.066;2022-09-29T07:45:10;1.35;;;1.25;;
60582;SDS011;46415;47.536;19.066;2022-09-29T07:48:13;2.28;;;1.35;;
60582;SDS011;46415;47.536;19.066;2022-09-29T07:51:19;1.70;;;1.60;;
60582;SDS011;46415;47.536;19.066;2022-09-29T07:54:25;1.50;;;1.40;;
60582;SDS011;46415;47.536;19.066;2022-09-29T07:57:30;1.45;;;1.33;;
60582;SDS011;46415;47.536;19.066;2022-09-29T08:00:33;1.45;;;1.35;;
60582;SDS011;46415;47.536;19.066;2022-09-29T08:03:37;1.73;;;1.58;;
60582;SDS011;46415;47.536;19.066;2022-09-29T08:06:41;1.80;;;1.70;;
60582;SDS011;46415;47.536;19.066;2022-09-29T08:09:44;2.25;;;1.65;;
60582;SDS011;46415;47.536;19.066;2022-09-29T08:12:46;2.30;;;2.10;;
60582;SDS011;46415;47.536;19.066;2022-09-29T08:15:55;1.87;;;1.73;;
60582;SDS011;46415;47.536;19.066;2022-09-29T08:18:59;2.30;;;2.08;;
60582;SDS011;46415;47.536;19.066;2022-09-29T08:22:02;1.98;;;1.87;;
60582;SDS011;46415;47.536;19.066;2022-09-29T08:25:05;1.83;;;1.50;;
60582;SDS011;46415;47.536;19.066;2022-09-29T08:28:08;1.60;;;1.50;;
60582;SDS011;46415;47.536;19.066;2022-09-29T08:31:15;1.90;;;1.80;;
60582;SDS011;46415;47.536;19.066;2022-09-29T08:34:21;2.40;;;2.20;;
60582;SDS011;46415;47.536;19.066;2022-09-29T08:37:24;2.00;;;1.90;;
60582;SDS011;46415;47.536;19.066;2022-09-29T08:40:29;1.98;;;1.87;;
60582;SDS011;46415;47.536;19.066;2022-09-29T08:43:33;1.85;;;1.75;;
60582;SDS011;46415;47.536;19.066;2022-09-29T08:49:47;2.55;;;1.10;;
60582;SDS011;46415;47.536;19.066;2022-09-29T08:52:57;1.20;;;1.20;;
60582;SDS011;46415;47.536;19.066;2022-09-29T08:56:08;1.30;;;1.30;;
60582;SDS011;46415;47.536;19.066;2022-09-29T08:59:17;1.20;;;1.15;;
60582;SDS011;46415;47.536;19.066;2022-09-29T09:09:09;1.00;;;1.00;;
60582;SDS011;46415;47.536;19.066;2022-09-29T09:12:25;0.93;;;0.93;;
60582;SDS011;46415;47.536;19.066;2022-09-29T09:15:49;1.03;;;0.80;;
60582;SDS011;46415;47.536;19.066;2022-09-29T09:23:00;0.65;;;0.65;;
60582;SDS011;46415;47.536;19.066;2022-09-29T09:26:10;0.70;;;0.70;;
60582;SDS011;46415;47.536;19.066;2022-09-29T09:32:24;0.60;;;0.60;;
60582;SDS011;46415;47.536;19.066;2022-09-29T09:39:01;0.90;;;0.80;;
60582;SDS011;46415;47.536;19.066;2022-09-29T09:42:14;0.75;;;0.70;;
60582;SDS011;46415;47.536;19.066;2022-09-29T09:45:35;0.85;;;0.85;;
60582;SDS011;46415;47.536;19.066;2022-09-29T09:48:50;0.90;;;0.90;;
60582;SDS011;46415;47.536;19.066;2022-09-29T09:52:08;0.60;;;0.60;;
60582;SDS011;46415;47.536;19.066;2022-09-29T09:55:21;1.02;;;1.02;;
60582;SDS011;46415;47.536;19.066;2022-09-29T10:01:55;0.77;;;0.77;;
60582;SDS011;46415;47.536;19.066;2022-09-29T10:04:58;0.82;;;0.82;;
60582;SDS011;46415;47.536;19.066;2022-09-29T10:08:01;0.70;;;0.70;;
60582;SDS011;46415;47.536;19.066;2022-09-29T10:11:25;0.90;;;0.90;;
60582;SDS011;46415;47.536;19.066;2022-09-29T10:17:38;0.75;;;0.75;;
60582;SDS011;46415;47.536;19.066;2022-09-29T10:20:46;0.70;;;0.70;;
60582;SDS011;46415;47.536;19.066;2022-09-29T10:23:49;0.60;;;0.60;;
60582;SDS011;46415;47.536;19.066;2022-09-29T10:26:54;0.77;;;0.77;;
60582;SDS011;46415;47.536;19.066;2022-09-29T10:30:00;0.88;;;0.88;;
60582;SDS011;46415;47.536;19.066;2022-09-29T10:33:03;0.80;;;0.80;;
60582;SDS011;46415;47.536;19.066;2022-09-29T10:36:12;0.88;;;0.80;;
60582;SDS011;46415;47.536;19.066;2022-09-29T10:42:43;0.93;;;0.93;;
60582;SDS011;46415;47.536;19.066;2022-09-29T10:49:17;1.02;;;0.80;;
60582;SDS011;46415;47.536;19.066;2022-09-29T10:52:25;0.70;;;0.70;;
60582;SDS011;46415;47.536;19.066;2022-09-29T10:55:31;1.17;;;1.08;;
60582;SDS011;46415;47.536;19.066;2022-09-29T11:01:58;0.95;;;0.95;;
60582;SDS011;46415;47.536;19.066;2022-09-29T11:05:16;1.37;;;1.30;;
60582;SDS011;46415;47.536;19.066;2022-09-29T11:08:21;1.37;;;1.27;;
60582;SDS011;46415;47.536;19.066;2022-09-29T11:18:33;1.90;;;1.40;;
60582;SDS011;46415;47.536;19.066;2022-09-29T11:31:44;1.58;;;1.45;;
60582;SDS011;46415;47.536;19.066;2022-09-29T11:41:59;0.55;;;0.55;;
60582;SDS011;46415;47.536;19.066;2022-09-29T11:45:10;0.57;;;0.57;;
60582;SDS011;46415;47.536;19.066;2022-09-29T11:58:46;0.60;;;0.57;;
60582;SDS011;46415;47.536;19.066;2022-09-29T12:02:04;0.50;;;0.50;;
60582;SDS011;46415;47.536;19.066;2022-09-29T12:05:35;0.50;;;0.50;;
60582;SDS011;46415;47.536;19.066;2022-09-29T12:18:55;0.52;;;0.52;;
60582;SDS011;46415;47.536;19.066;2022-09-29T12:22:02;0.50;;;0.50;;
60582;SDS011;46415;47.536;19.066;2022-09-29T12:25:12;0.40;;;0.40;;
60582;SDS011;46415;47.536;19.066;2022-09-29T12:28:18;0.52;;;0.52;;
60582;SDS011;46415;47.536;19.066;2022-09-29T12:31:35;0.60;;;0.60;;
60582;SDS011;46415;47.536;19.066;2022-09-29T12:34:48;0.50;;;0.50;;
60582;SDS011;46415;47.536;19.066;2022-09-29T12:38:18;0.55;;;0.55;;
60582;SDS011;46415;47.536;19.066;2022-09-29T12:41:24;0.50;;;0.50;;
60582;SDS011;46415;47.536;19.066;2022-09-29T12:44:42;0.65;;;0.65;;
60582;SDS011;46415;47.536;19.066;2022-09-29T12:51:00;0.50;;;0.50;;
60582;SDS011;46415;47.536;19.066;2022-09-29T12:54:30;0.60;;;0.60;;
60582;SDS011;46415;47.536;19.066;2022-09-29T12:57:53;0.52;;;0.52;;
60582;SDS011;46415;47.536;19.066;2022-09-29T13:01:13;0.65;;;0.65;;
60582;SDS011;46415;47.536;19.066;2022-09-29T13:14:20;0.50;;;0.50;;
60582;SDS011;46415;47.536;19.066;2022-09-29T13:21:03;1.10;;;0.57;;
60582;SDS011;46415;47.536;19.066;2022-09-29T13:27:51;0.60;;;0.60;;
60582;SDS011;46415;47.536;19.066;2022-09-29T13:30:58;0.50;;;0.50;;
60582;SDS011;46415;47.536;19.066;2022-09-29T13:34:04;0.67;;;0.67;;
60582;SDS011;46415;47.536;19.066;2022-09-29T13:40:15;0.60;;;0.60;;
60582;SDS011;46415;47.536;19.066;2022-09-29T13:47:09;2.22;;;0.55;;
60582;SDS011;46415;47.536;19.066;2022-09-29T13:50:44;1.42;;;1.12;;
60582;SDS011;46415;47.536;19.066;2022-09-29T13:54:12;1.17;;;1.08;;
60582;SDS011;46415;47.536;19.066;2022-09-29T13:57:23;1.05;;;0.68;;
60582;SDS011;46415;47.536;19.066;2022-09-29T14:00:29;0.98;;;0.80;;
60582;SDS011;46415;47.536;19.066;2022-09-29T14:03:37;2.03;;;1.00;;
60582;SDS011;46415;47.536;19.066;2022-09-29T14:06:44;0.77;;;0.77;;
60582;SDS011;46415;47.536;19.066;2022-09-29T14:09:49;1.58;;;0.80;;
60582;SDS011;46415;47.536;19.066;2022-09-29T14:12:54;1.58;;;0.82;;
60582;SDS011;46415;47.536;19.066;2022-09-29T14:22:49;1.10;;;1.10;;
60582;SDS011;46415;47.536;19.066;2022-09-29T14:25:55;1.05;;;1.00;;
60582;SDS011;46415;47.536;19.066;2022-09-29T14:28:58;0.95;;;0.95;;
60582;SDS011;46415;47.536;19.066;2022-09-29T14:32:04;1.12;;;1.00;;
60582;SDS011;46415;47.536;19.066;2022-09-29T14:38:29;3.25;;;1.00;;
60582;SDS011;46415;47.536;19.066;2022-09-29T14:41:42;0.98;;;0.90;;
60582;SDS011;46415;47.536;19.066;2022-09-29T14:44:46;3.67;;;1.10;;
60582;SDS011;46415;47.536;19.066;2022-09-29T14:48:10;1.37;;;1.10;;
60582;SDS011;46415;47.536;19.066;2022-09-29T14:51:52;0.90;;;0.90;;
60582;SDS011;46415;47.536;19.066;2022-09-29T15:02:18;1.37;;;1.00;;
60582;SDS011;46415;47.536;19.066;2022-09-29T15:05:31;0.60;;;0.60;;
60582;SDS011;46415;47.536;19.066;2022-09-29T15:08:36;1.55;;;0.80;;
60582;SDS011;46415;47.536;19.066;2022-09-29T15:11:42;0.70;;;0.70;;
60582;SDS011;46415;47.536;19.066;2022-09-29T15:14:51;0.88;;;0.88;;
60582;SDS011;46415;47.536;19.066;2022-09-29T15:17:57;0.80;;;0.80;;
60582;SDS011;46415;47.536;19.066;2022-09-29T15:21:15;1.00;;;1.00;;
60582;SDS011;46415;47.536;19.066;2022-09-29T15:27:39;0.90;;;0.90;;
60582;SDS011;46415;47.536;19.066;2022-09-29T15:30:42;0.95;;;0.93;;
60582;SDS011;46415;47.536;19.066;2022-09-29T15:33:46;0.80;;;0.80;;
60582;SDS011;46415;47.536;19.066;2022-09-29T15:36:50;1.17;;;1.08;;
60582;SDS011;46415;47.536;19.066;2022-09-29T15:39:55;1.40;;;1.30;;
60582;SDS011;46415;47.536;19.066;2022-09-29T15:42:57;2.33;;;1.30;;
60582;SDS011;46415;47.536;19.066;2022-09-29T15:46:01;1.35;;;1.17;;
60582;SDS011;46415;47.536;19.066;2022-09-29T15:49:17;2.05;;;1.42;;
60582;SDS011;46415;47.536;19.066;2022-09-29T15:55:31;1.48;;;1.37;;
60582;SDS011;46415;47.536;19.066;2022-09-29T15:58:35;1.20;;;1.10;;
60582;SDS011;46415;47.536;19.066;2022-09-29T16:01:46;1.50;;;1.40;;
60582;SDS011;46415;47.536;19.066;2022-09-29T16:04:53;1.33;;;1.15;;
60582;SDS011;46415;47.536;19.066;2022-09-29T16:14:22;1.17;;;1.08;;
60582;SDS011;46415;47.536;19.066;2022-09-29T16:17:29;1.37;;;1.35;;
60582;SDS011;46415;47.536;19.066;2022-09-29T16:20:32;2.30;;;1.50;;
60582;SDS011;46415;47.536;19.066;2022-09-29T16:23:50;2.75;;;1.52;;
60582;SDS011;46415;47.536;19.066;2022-09-29T16:26:53;1.55;;;1.40;;
60582;SDS011;46415;47.536;19.066;2022-09-29T16:30:04;1.60;;;1.50;;
60582;SDS011;46415;47.536;19.066;2022-09-29T16:33:20;2.03;;;1.75;;
60582;SDS011;46415;47.536;19.066;2022-09-29T16:36:25;1.77;;;1.62;;
60582;SDS011;46415;47.536;19.066;2022-09-29T16:39:38;2.00;;;1.75;;
60582;SDS011;46415;47.536;19.066;2022-09-29T16:42:47;1.83;;;1.73;;
60582;SDS011;46415;47.536;19.066;2022-09-29T16:45:54;1.67;;;1.50;;
60582;SDS011;46415;47.536;19.066;2022-09-29T16:49:01;2.10;;;1.65;;
60582;SDS011;46415;47.536;19.066;2022-09-29T16:52:11;1.95;;;1.80;;
60582;SDS011;46415;47.536;19.066;2022-09-29T16:58:21;1.90;;;1.80;;
60582;SDS011;46415;47.536;19.066;2022-09-29T17:01:24;1.70;;;1.60;;
60582;SDS011;46415;47.536;19.066;2022-09-29T17:04:27;2.40;;;2.20;;
60582;SDS011;46415;47.536;19.066;2022-09-29T17:07:36;2.03;;;1.83;;
60582;SDS011;46415;47.536;19.066;2022-09-29T17:10:42;1.58;;;1.48;;
60582;SDS011;46415;47.536;19.066;2022-09-29T17:13:45;2.65;;;1.98;;
60582;SDS011;46415;47.536;19.066;2022-09-29T17:16:48;2.12;;;1.87;;
60582;SDS011;46415;47.536;19.066;2022-09-29T17:19:54;1.73;;;1.62;;
60582;SDS011;46415;47.536;19.066;2022-09-29T17:22:57;2.12;;;1.92;;
60582;SDS011;46415;47.536;19.066;2022-09-29T17:26:01;2.40;;;2.20;;
60582;SDS011;46415;47.536;19.066;2022-09-29T17:29:36;2.22;;;1.90;;
60582;SDS011;46415;47.536;19.066;2022-09-29T17:32:39;2.53;;;1.58;;
60582;SDS011;46415;47.536;19.066;2022-09-29T17:35:47;3.00;;;2.70;;
60582;SDS011;46415;47.536;19.066;2022-09-29T17:38:57;3.40;;;2.58;;
60582;SDS011;46415;47.536;19.066;2022-09-29T17:41:59;2.95;;;2.75;;
60582;SDS011;46415;47.536;19.066;2022-09-29T17:45:02;2.42;;;2.22;;
60582;SDS011;46415;47.536;19.066;2022-09-29T17:48:05;4.87;;;3.90;;
60582;SDS011;46415;47.536;19.066;2022-09-29T17:51:10;6.30;;;2.67;;
60582;SDS011;46415;47.536;19.066;2022-09-29T17:54:15;3.90;;;3.10;;
60582;SDS011;46415;47.536;19.066;2022-09-29T17:57:23;2.42;;;2.20;;
60582;SDS011;46415;47.536;19.066;2022-09-29T18:00:33;3.80;;;2.83;;
60582;SDS011;46415;47.536;19.066;2022-09-29T18:03:40;2.58;;;1.92;;
60582;SDS011;46415;47.536;19.066;2022-09-29T18:06:43;2.12;;;2.03;;
60582;SDS011;46415;47.536;19.066;2022-09-29T18:09:46;3.12;;;2.87;;
60582;SDS011;46415;47.536;19.066;2022-09-29T18:12:49;2.85;;;2.62;;
60582;SDS011;46415;47.536;19.066;2022-09-29T18:15:52;2.78;;;2.58;;
60582;SDS011;46415;47.536;19.066;2022-09-29T18:18:55;4.18;;;3.05;;
60582;SDS011;46415;47.536;19.066;2022-09-29T18:22:00;3.40;;;2.80;;
60582;SDS011;46415;47.536;19.066;2022-09-29T18:25:04;4.40;;;2.62;;
60582;SDS011;46415;47.536;19.066;2022-09-29T18:28:09;3.17;;;2.87;;
60582;SDS011;46415;47.536;19.066;2022-09-29T18:34:28;3.45;;;3.00;;
60582;SDS011;46415;47.536;19.066;2022-09-29T18:37:32;5.30;;;3.72;;
60582;SDS011;46415;47.536;19.066;2022-09-29T18:40:35;3.97;;;2.80;;
60582;SDS011;46415;47.536;19.066;2022-09-29T18:43:39;4.68;;;3.92;;
60582;SDS011;46415;47.536;19.066;2022-09-29T18:46:42;4.47;;;3.83;;
60582;SDS011;46415;47.536;19.066;2022-09-29T18:49:45;3.58;;;3.15;;
60582;SDS011;46415;47.536;19.066;2022-09-29T18:52:50;5.03;;;4.15;;
60582;SDS011;46415;47.536;19.066;2022-09-29T18:55:54;5.00;;;2.92;;
60582;SDS011;46415;47.536;19.066;2022-09-29T18:59:00;6.18;;;4.32;;
60582;SDS011;46415;47.536;19.066;2022-09-29T19:02:07;4.70;;;3.58;;
60582;SDS011;46415;47.536;19.066;2022-09-29T19:05:20;4.47;;;2.83;;
60582;SDS011;46415;47.536;19.066;2022-09-29T19:08:24;4.25;;;3.10;;
60582;SDS011;46415;47.536;19.066;2022-09-29T19:11:27;6.57;;;5.10;;
60582;SDS011;46415;47.536;19.066;2022-09-29T19:14:30;5.05;;;3.47;;
60582;SDS011;46415;47.536;19.066;2022-09-29T19:17:35;4.12;;;3.00;;
60582;SDS011;46415;47.536;19.066;2022-09-29T19:20:38;4.93;;;3.58;;
60582;SDS011;46415;47.536;19.066;2022-09-29T19:23:41;5.07;;;3.37;;
60582;SDS011;46415;47.536;19.066;2022-09-29T19:26:44;6.68;;;4.10;;
60582;SDS011;46415;47.536;19.066;2022-09-29T19:29:51;4.57;;;3.40;;
60582;SDS011;46415;47.536;19.066;2022-09-29T19:32:55;5.18;;;3.67;;
60582;SDS011;46415;47.536;19.066;2022-09-29T19:36:00;5.50;;;4.05;;
60582;SDS011;46415;47.536;19.066;2022-09-29T19:39:08;4.28;;;3.85;;
60582;SDS011;46415;47.536;19.066;2022-09-29T19:42:13;6.10;;;3.85;;
60582;SDS011;46415;47.536;19.066;2022-09-29T19:45:16;4.47;;;4.03;;
60582;SDS011;46415;47.536;19.066;2022-09-29T19:48:20;4.35;;;3.03;;
60582;SDS011;46415;47.536;19.066;2022-09-29T19:51:23;6.05;;;3.87;;
60582;SDS011;46415;47.536;19.066;2022-09-29T19:54:49;4.20;;;3.72;;
60582;SDS011;46415;47.536;19.066;2022-09-29T19:57:51;4.93;;;3.65;;
60582;SDS011;46415;47.536;19.066;2022-09-29T20:00:57;4.68;;;3.78;;
60582;SDS011;46415;47.536;19.066;2022-09-29T20:04:01;4.65;;;4.03;;
60582;SDS011;46415;47.536;19.066;2022-09-29T20:07:04;12.32;;;4.30;;
60582;SDS011;46415;47.536;19.066;2022-09-29T20:10:08;7.35;;;5.03;;
60582;SDS011;46415;47.536;19.066;2022-09-29T20:13:15;4.28;;;3.42;;
60582;SDS011;46415;47.536;19.066;2022-09-29T20:16:18;6.12;;;4.57;;
60582;SDS011;46415;47.536;19.066;2022-09-29T20:19:21;7.12;;;4.03;;
60582;SDS011;46415;47.536;19.066;2022-09-29T20:22:25;4.45;;;3.40;;
60582;SDS011;46415;47.536;19.066;2022-09-29T20:25:28;4.05;;;3.55;;
60582;SDS011;46415;47.536;19.066;2022-09-29T20:28:31;6.62;;;4.93;;
60582;SDS011;46415;47.536;19.066;2022-09-29T20:31:34;5.47;;;4.28;;
60582;SDS011;46415;47.536;19.066;2022-09-29T20:34:39;6.25;;;5.03;;
60582;SDS011;46415;47.536;19.066;2022-09-29T20:37:42;7.28;;;4.20;;
60582;SDS011;46415;47.536;19.066;2022-09-29T20:40:45;5.68;;;4.68;;
60582;SDS011;46415;47.536;19.066;2022-09-29T20:43:49;6.45;;;4.62;;
60582;SDS011;46415;47.536;19.066;2022-09-29T20:46:55;7.43;;;5.93;;
60582;SDS011;46415;47.536;19.066;2022-09-29T20:49:58;8.15;;;6.47;;
60582;SDS011;46415;47.536;19.066;2022-09-29T20:53:01;8.63;;;5.70;;
60582;SDS011;46415;47.536;19.066;2022-09-29T20:56:09;5.75;;;4.65;;
60582;SDS011;46415;47.536;19.066;2022-09-29T21:02:17;8.50;;;5.35;;
60582;SDS011;46415;47.536;19.066;2022-09-29T21:05:20;7.70;;;4.85;;
60582;SDS011;46415;47.536;19.066;2022-09-29T21:08:25;9.27;;;6.82;;
60582;SDS011;46415;47.536;19.066;2022-09-29T21:11:29;7.00;;;5.03;;
60582;SDS011;46415;47.536;19.066;2022-09-29T21:14:39;7.35;;;5.25;;
60582;SDS011;46415;47.536;19.066;2022-09-29T21:17:42;8.38;;;6.12;;
60582;SDS011;46415;47.536;19.066;2022-09-29T21:20:44;9.15;;;5.00;;
60582;SDS011;46415;47.536;19.066;2022-09-29T21:23:47;9.05;;;6.93;;
60582;SDS011;46415;47.536;19.066;2022-09-29T21:26:51;8.70;;;5.47;;